Airfield :
LOGIN :

Register | Disclaimer

   EN    FR    IT 

 










Legend :    VFR   Marginal VFR   IFR   Intensive IFR   Very Intensive IFR
Visi :
Ceiling :
>= 8 km
>= 3000ft
5 to 8 km
1000 to 3000 ft
1500m to 5 km
500 to 1000 ft
800 to 1500m
200 to 500 ft
< 800m
< 200 ft
Symbols :   Thunderstorms  Fog  Heavy snow  Heavy precipitations  Wind > 20 kt
SIGMETs :     Misc.  Thunderstorms  Icing  Turbulence  Mountain Waves  Volcanic Ashes







- Airport Elevation : 628 ft
- IATA code : PNL


LICG - Pantelleria

CURRENT METAR :
  • 200550Z 18010KT 9999 SCT007 15/14 Q1013

EXPIRED METARs :
  • 200450Z 18008KT 9999 FEW007 13/13 Q1013

TAF TAF LICG
Valid from the 20 at 06:00 until the 20 at 15:00 UTC


200500Z 2006/2015 24007KT 9999 SCT040
BECMG 2010/2012 32013KT
No reported NOTAMs for that airfield.
2 SIGMETs reported for the Roma FIR (LIRR) :
 
Severe turbulence
LIRR SIGMET 2 VALID 200430/200800 LIIB
LIRR ROMA FIR SEV TURB FCST SE OF LINE N3737 E01056 - N3936 E01615 FL270/340 MOV E NC=
Embedded thunderstorms
LIRR SIGMET 1 VALID 200400/200800 LIIB
LIRR ROMA FIR EMBD TS FCST WI N4118 E00948 - N3811 E00958 - N3858 E00757 - N4059 E00800 - N4119 E00819 - N4118 E00948 TOP FL300 MOV E NC=



MET'MAP, your aeronautical weather chart ! - Copyright ORBIFLY December 2007 - Disclaimer

ORBIFLY MET'MAP TEAM :

Programming & Development : Alexandra Zaïnal
Concept & Development : Baudouin d'Aumeries
Co-Development & Prog : Marc-Olivier Méhu
Technical & hardware support : Manuel Goepfert

Contact : metmap@orbifly.com




SOURCES & CREDITS :

   NOAA